Terminal Aerodrome Forecast
Issued by NWS Shreveport, LA

Home | Current Version | Previous Version | Text Only | Print | Product List | Glossary On
Versions: 1 2 3 4 5 6 7 8 9 10 11 12 13
959
FTUS44 KSHV 261120
TAFTXK
TAF
KTXK 261120Z 2612/2712 12006KT P6SM SCT120 SCT250
     FM261500 13008KT P6SM SCT100 SCT250
     FM262100 15010KT P6SM FEW040 BKN070
     FM270000 14006KT P6SM VCTS SCT030 BKN050CB
     FM270300 12006KT 3SM TSRA BR SCT015 BKN030CB=

USA.gov is the U.S. government's official web portal to all federal, state and local government web resources and services.